createdAt,value
2019-05-05T00:00:05.850Z,0.00
2019-05-05T00:01:05.873Z,0.00
2019-05-05T00:02:05.899Z,0.00
2019-05-05T00:03:05.929Z,0.00
2019-05-05T00:04:05.956Z,0.00
2019-05-05T00:05:08.582Z,0.00
2019-05-05T00:06:06.046Z,0.00
2019-05-05T00:07:06.041Z,0.00
2019-05-05T00:08:06.066Z,0.00
2019-05-05T00:09:06.096Z,0.00
2019-05-05T00:10:06.123Z,0.00
2019-05-05T00:11:06.150Z,0.00
2019-05-05T00:12:06.181Z,0.00
2019-05-05T00:13:06.205Z,0.00
2019-05-05T00:14:06.233Z,0.00
2019-05-05T00:15:06.262Z,0.00
2019-05-05T00:16:06.291Z,0.00
2019-05-05T00:17:06.317Z,0.00
2019-05-05T00:18:06.345Z,0.00
2019-05-05T00:19:06.371Z,0.00
2019-05-05T00:20:06.402Z,0.00
2019-05-05T00:21:06.427Z,0.00
2019-05-05T00:22:06.455Z,0.00
2019-05-05T00:23:06.482Z,0.00
2019-05-05T00:24:06.510Z,0.00
2019-05-05T00:25:06.537Z,0.00
2019-05-05T00:26:06.567Z,0.00
2019-05-05T00:27:06.594Z,0.00
2019-05-05T00:28:06.622Z,0.00
2019-05-05T00:29:06.649Z,0.00
2019-05-05T00:30:06.675Z,0.00
2019-05-05T00:31:06.703Z,0.00
2019-05-05T00:32:06.731Z,0.00
2019-05-05T00:33:06.759Z,0.00
2019-05-05T00:34:06.785Z,0.00
2019-05-05T00:35:06.813Z,0.00
2019-05-05T00:36:07.822Z,0.00
2019-05-05T00:37:06.872Z,0.00
2019-05-05T00:38:06.896Z,0.00
2019-05-05T00:39:06.926Z,0.00
2019-05-05T00:40:06.955Z,0.00
2019-05-05T00:41:06.979Z,0.00
2019-05-05T00:42:07.007Z,0.00
2019-05-05T00:43:07.033Z,0.00
2019-05-05T00:44:07.064Z,0.00
2019-05-05T00:45:07.089Z,0.00
2019-05-05T00:46:07.117Z,0.00
2019-05-05T00:47:07.144Z,0.00
2019-05-05T00:48:07.186Z,0.00
2019-05-05T00:49:07.198Z,0.00
2019-05-05T00:50:07.228Z,0.00
2019-05-05T00:51:07.260Z,0.00
2019-05-05T00:52:07.280Z,0.00
2019-05-05T00:53:07.309Z,0.00
2019-05-05T00:54:07.336Z,0.00
2019-05-05T00:55:07.363Z,0.00
2019-05-05T00:56:07.394Z,0.00
2019-05-05T00:57:07.420Z,0.00
2019-05-05T00:58:07.449Z,0.00
2019-05-05T00:59:07.474Z,0.00
2019-05-05T01:00:07.501Z,0.00
2019-05-05T01:01:07.528Z,0.00
2019-05-05T01:02:07.557Z,0.00
2019-05-05T01:03:07.584Z,0.00
2019-05-05T01:04:07.613Z,0.00
2019-05-05T01:05:07.638Z,0.00
2019-05-05T01:06:07.666Z,0.00
2019-05-05T01:07:07.692Z,0.00
2019-05-05T01:08:07.722Z,0.00
2019-05-05T01:09:07.748Z,0.00
2019-05-05T01:10:07.775Z,0.00
2019-05-05T01:11:07.802Z,0.00
2019-05-05T01:12:07.830Z,0.00
2019-05-05T01:13:07.858Z,0.00
2019-05-05T01:14:07.885Z,0.00
2019-05-05T01:15:07.911Z,0.00
2019-05-05T01:16:07.939Z,0.00
2019-05-05T01:17:07.967Z,0.00
2019-05-05T01:18:07.996Z,0.00
2019-05-05T01:19:08.022Z,0.00
2019-05-05T01:20:08.049Z,0.00
2019-05-05T01:21:08.078Z,0.00
2019-05-05T01:22:08.103Z,0.00
2019-05-05T01:23:08.131Z,0.00
2019-05-05T01:24:08.159Z,0.00
2019-05-05T01:25:08.187Z,0.00
2019-05-05T01:26:08.216Z,0.00
2019-05-05T01:27:08.240Z,0.00
2019-05-05T01:28:08.267Z,0.00
2019-05-05T01:29:08.294Z,0.00
2019-05-05T01:30:08.324Z,0.00
2019-05-05T01:31:08.350Z,0.00
2019-05-05T01:32:08.376Z,0.00
2019-05-05T01:33:08.403Z,0.00
2019-05-05T01:34:08.431Z,0.00
2019-05-05T01:35:08.465Z,0.00
2019-05-05T01:36:08.485Z,0.00
2019-05-05T01:37:08.523Z,0.00
2019-05-05T01:38:08.543Z,0.00
2019-05-05T01:39:08.567Z,0.00
2019-05-05T01:40:08.596Z,0.00
2019-05-05T01:41:08.622Z,0.00
2019-05-05T01:42:08.654Z,0.00
2019-05-05T01:43:08.676Z,0.00
2019-05-05T01:44:08.705Z,0.00
2019-05-05T01:45:08.729Z,0.00
2019-05-05T01:46:08.763Z,0.00
2019-05-05T01:47:08.783Z,0.00
2019-05-05T01:48:08.810Z,0.00
2019-05-05T01:49:08.839Z,0.00
2019-05-05T01:50:18.360Z,0.00
2019-05-05T01:51:08.892Z,0.00
2019-05-05T01:52:08.921Z,0.00
2019-05-05T01:53:08.947Z,0.00
2019-05-05T01:54:08.974Z,0.00
2019-05-05T01:55:09.001Z,0.00
2019-05-05T01:56:09.028Z,0.00
2019-05-05T01:57:09.057Z,0.00
2019-05-05T01:58:09.090Z,0.00
2019-05-05T01:59:09.110Z,0.00
2019-05-05T02:00:09.138Z,0.00
2019-05-05T02:01:09.166Z,0.00
2019-05-05T02:02:09.192Z,0.00
2019-05-05T02:03:09.218Z,0.00
2019-05-05T02:04:09.246Z,0.00
2019-05-05T02:05:09.277Z,0.00
2019-05-05T02:06:09.308Z,0.00
2019-05-05T02:07:09.327Z,0.00
2019-05-05T02:08:09.356Z,0.00
2019-05-05T02:09:09.383Z,0.00
2019-05-05T02:10:09.419Z,0.00
2019-05-05T02:11:09.434Z,0.00
2019-05-05T02:12:09.462Z,0.00
2019-05-05T02:13:09.491Z,0.00
2019-05-05T02:14:09.523Z,0.00
2019-05-05T02:15:09.542Z,0.00
2019-05-05T02:16:09.570Z,0.00
2019-05-05T02:17:09.597Z,0.00
2019-05-05T02:18:09.624Z,0.00
2019-05-05T02:19:09.651Z,0.00
2019-05-05T02:20:09.678Z,0.00
2019-05-05T02:21:09.705Z,0.00
2019-05-05T02:22:09.733Z,0.00
2019-05-05T02:23:09.757Z,0.00
2019-05-05T02:24:09.786Z,0.00
2019-05-05T02:25:09.814Z,0.00
2019-05-05T02:26:09.842Z,0.00
2019-05-05T02:27:09.868Z,0.00
2019-05-05T02:28:09.893Z,0.00
2019-05-05T02:29:09.921Z,0.00
2019-05-05T02:30:09.947Z,0.00
2019-05-05T02:31:09.975Z,0.00
2019-05-05T02:32:10.001Z,0.00
2019-05-05T02:33:10.033Z,0.00
2019-05-05T02:34:10.072Z,0.00
2019-05-05T02:35:10.082Z,0.00
2019-05-05T02:36:10.107Z,0.00
2019-05-05T02:37:10.139Z,0.00
2019-05-05T02:38:10.163Z,0.00
2019-05-05T02:39:10.190Z,0.00
2019-05-05T02:40:10.216Z,0.00
2019-05-05T02:41:10.243Z,0.00
2019-05-05T02:42:10.281Z,0.00
2019-05-05T02:43:10.295Z,0.00
2019-05-05T02:44:10.332Z,0.00
2019-05-05T02:45:10.350Z,0.00
2019-05-05T02:46:10.379Z,0.00
2019-05-05T02:47:10.403Z,0.00
2019-05-05T02:48:10.433Z,0.00
2019-05-05T02:49:10.456Z,0.00
2019-05-05T02:50:10.483Z,0.00
2019-05-05T02:51:10.511Z,0.00
2019-05-05T02:52:10.538Z,0.00
2019-05-05T02:53:10.563Z,0.00
2019-05-05T02:54:10.589Z,0.00
2019-05-05T02:55:10.617Z,0.00
2019-05-05T02:56:10.645Z,0.00
2019-05-05T02:57:10.670Z,0.00
2019-05-05T02:58:10.697Z,0.00
2019-05-05T02:59:10.724Z,0.00
2019-05-05T03:00:10.758Z,0.00
2019-05-05T03:01:10.777Z,0.00
2019-05-05T03:02:10.805Z,0.00
2019-05-05T03:03:10.837Z,0.00
2019-05-05T03:04:10.857Z,0.00
2019-05-05T03:05:10.883Z,4.00
2019-05-05T03:06:10.912Z,4.00
2019-05-05T03:07:10.936Z,0.00
2019-05-05T03:08:10.964Z,4.00
2019-05-05T03:09:10.990Z,4.00
2019-05-05T03:10:11.017Z,4.00
2019-05-05T03:11:11.043Z,4.00
2019-05-05T03:12:11.263Z,4.00
2019-05-05T03:13:11.099Z,4.00
2019-05-05T03:14:11.125Z,8.00
2019-05-05T03:15:11.150Z,4.00
2019-05-05T03:16:11.177Z,8.00
2019-05-05T03:17:11.203Z,8.00
2019-05-05T03:18:13.348Z,8.00
2019-05-05T03:19:11.257Z,12.00
2019-05-05T03:20:11.285Z,12.00
2019-05-05T03:21:11.310Z,12.00
2019-05-05T03:22:11.340Z,12.00
2019-05-05T03:23:13.506Z,16.00
2019-05-05T03:24:11.389Z,20.00
2019-05-05T03:25:13.495Z,24.00
2019-05-05T03:26:11.447Z,20.00
2019-05-05T03:27:11.469Z,28.00
2019-05-05T03:28:13.458Z,28.00
2019-05-05T03:29:13.730Z,32.00
2019-05-05T03:30:11.559Z,32.00
2019-05-05T03:31:11.576Z,36.00
2019-05-05T03:32:11.866Z,40.00
2019-05-05T03:33:11.636Z,44.00
2019-05-05T03:34:11.655Z,52.00
2019-05-05T03:35:13.483Z,52.00
2019-05-05T03:36:13.515Z,60.00
2019-05-05T03:37:11.735Z,60.00
2019-05-05T03:38:11.763Z,64.00
2019-05-05T03:39:11.792Z,72.00
2019-05-05T03:40:11.814Z,76.00
2019-05-05T03:41:13.602Z,80.00
2019-05-05T03:42:13.856Z,88.00
2019-05-05T03:43:11.896Z,92.00
2019-05-05T03:44:13.987Z,96.00
2019-05-05T03:45:11.948Z,100.00
2019-05-05T03:46:13.574Z,108.00
2019-05-05T03:47:13.541Z,116.00
2019-05-05T03:48:13.610Z,116.00
2019-05-05T03:49:13.939Z,124.00
2019-05-05T03:50:14.301Z,132.00
2019-05-05T03:51:18.821Z,140.00
2019-05-05T03:52:13.894Z,140.00
2019-05-05T03:53:14.034Z,148.00
2019-05-05T03:54:14.428Z,156.00
2019-05-05T03:55:13.799Z,160.00
2019-05-05T03:56:14.036Z,168.00
2019-05-05T03:57:14.112Z,172.00
2019-05-05T03:58:14.094Z,180.00
2019-05-05T03:59:14.116Z,188.00
2019-05-05T04:00:14.136Z,192.00
2019-05-05T04:01:14.442Z,196.00
2019-05-05T04:02:14.170Z,200.00
2019-05-05T04:03:12.432Z,208.00
2019-05-05T04:04:13.908Z,216.00
2019-05-05T04:05:14.462Z,220.00
2019-05-05T04:06:14.569Z,228.00
2019-05-05T04:07:13.963Z,232.00
2019-05-05T04:08:14.394Z,240.00
2019-05-05T04:09:13.759Z,244.00
2019-05-05T04:10:14.054Z,248.00
2019-05-05T04:11:14.366Z,252.00
2019-05-05T04:12:13.711Z,260.00
2019-05-05T04:13:13.888Z,264.00
2019-05-05T04:14:14.236Z,268.00
2019-05-05T04:15:14.229Z,272.00
2019-05-05T04:16:13.617Z,280.00
2019-05-05T04:17:14.129Z,284.00
2019-05-05T04:18:14.587Z,288.00
2019-05-05T04:19:13.844Z,296.00
2019-05-05T04:20:13.829Z,300.00
2019-05-05T04:21:14.514Z,304.00
2019-05-05T04:22:13.539Z,312.00
2019-05-05T04:23:14.113Z,312.00
2019-05-05T04:24:14.585Z,320.00
2019-05-05T04:25:13.900Z,324.00
2019-05-05T04:26:14.233Z,328.00
2019-05-05T04:27:14.718Z,332.00
2019-05-05T04:28:13.661Z,336.00
2019-05-05T04:29:13.961Z,340.00
2019-05-05T04:30:14.293Z,344.00
2019-05-05T04:31:13.646Z,348.00
2019-05-05T04:32:14.035Z,352.00
2019-05-05T04:33:14.203Z,356.00
2019-05-05T04:34:13.537Z,364.00
2019-05-05T04:35:14.056Z,364.00
2019-05-05T04:36:14.449Z,368.00
2019-05-05T04:37:14.936Z,372.00
2019-05-05T04:38:13.892Z,376.00
2019-05-05T04:39:14.382Z,380.00
2019-05-05T04:40:14.825Z,384.00
2019-05-05T04:41:13.998Z,388.00
2019-05-05T04:42:14.168Z,392.00
2019-05-05T04:43:14.307Z,392.00
2019-05-05T04:44:14.859Z,400.00
2019-05-05T04:45:14.727Z,400.00
2019-05-05T04:46:14.101Z,404.00
2019-05-05T04:47:14.501Z,412.00
2019-05-05T04:48:13.817Z,412.00
2019-05-05T04:49:14.062Z,416.00
2019-05-05T04:50:14.936Z,420.00
2019-05-05T04:51:13.979Z,424.00
2019-05-05T04:52:14.270Z,424.00
2019-05-05T04:53:13.747Z,432.00
2019-05-05T04:54:14.239Z,432.00
2019-05-05T04:55:13.936Z,436.00
2019-05-05T04:56:14.190Z,436.00
2019-05-05T04:57:14.978Z,440.00
2019-05-05T04:58:13.879Z,444.00
2019-05-05T04:59:14.460Z,448.00
2019-05-05T05:00:13.956Z,452.00
2019-05-05T05:01:13.960Z,456.00
2019-05-05T05:02:14.492Z,456.00
2019-05-05T05:03:14.011Z,460.00
2019-05-05T05:04:14.038Z,464.00
2019-05-05T05:05:14.587Z,464.00
2019-05-05T05:06:14.657Z,468.00
2019-05-05T05:07:14.118Z,468.00
2019-05-05T05:08:14.145Z,472.00
2019-05-05T05:09:14.734Z,476.00
2019-05-05T05:10:14.198Z,476.00
2019-05-05T05:11:14.347Z,480.00
2019-05-05T05:12:14.673Z,484.00
2019-05-05T05:13:14.278Z,488.00
2019-05-05T05:14:14.488Z,492.00
2019-05-05T05:15:14.697Z,492.00
2019-05-05T05:16:14.357Z,492.00
2019-05-05T05:17:14.385Z,496.00
2019-05-05T05:18:14.868Z,500.00
2019-05-05T05:19:14.436Z,496.00
2019-05-05T05:20:14.464Z,500.00
2019-05-05T05:21:14.737Z,504.00
2019-05-05T05:22:14.516Z,508.00
2019-05-05T05:23:14.542Z,512.00
2019-05-05T05:24:14.772Z,512.00
2019-05-05T05:25:14.595Z,516.00
2019-05-05T05:26:14.624Z,516.00
2019-05-05T05:27:14.652Z,520.00
2019-05-05T05:28:14.676Z,520.00
2019-05-05T05:29:15.187Z,520.00
2019-05-05T05:30:14.730Z,528.00
2019-05-05T05:31:14.757Z,528.00
2019-05-05T05:32:15.576Z,528.00
2019-05-05T05:33:15.041Z,532.00
2019-05-05T05:34:15.004Z,536.00
2019-05-05T05:35:14.864Z,536.00
2019-05-05T05:36:14.892Z,540.00
2019-05-05T05:37:14.919Z,540.00
2019-05-05T05:38:14.946Z,544.00
2019-05-05T05:39:14.972Z,544.00
2019-05-05T05:40:15.007Z,544.00
2019-05-05T05:41:15.028Z,552.00
2019-05-05T05:42:15.055Z,552.00
2019-05-05T05:43:15.078Z,556.00
2019-05-05T05:44:15.111Z,556.00
2019-05-05T05:45:15.133Z,560.00
2019-05-05T05:46:15.164Z,564.00
2019-05-05T05:47:15.187Z,564.00
2019-05-05T05:48:15.215Z,564.00
2019-05-05T05:49:15.242Z,568.00
2019-05-05T05:50:15.276Z,568.00
2019-05-05T05:51:15.296Z,572.00
2019-05-05T05:52:19.071Z,576.00
2019-05-05T05:53:15.350Z,576.00
2019-05-05T05:54:15.378Z,580.00
2019-05-05T05:55:15.404Z,584.00
2019-05-05T05:56:15.431Z,584.00
2019-05-05T05:57:15.461Z,588.00
2019-05-05T05:58:15.489Z,588.00
2019-05-05T05:59:15.512Z,592.00
2019-05-05T06:00:15.541Z,596.00
2019-05-05T06:01:15.570Z,596.00
2019-05-05T06:02:15.782Z,596.00
2019-05-05T06:03:15.622Z,600.00
2019-05-05T06:04:15.650Z,600.00
2019-05-05T06:05:15.678Z,600.00
2019-05-05T06:06:15.705Z,608.00
2019-05-05T06:07:15.734Z,608.00
2019-05-05T06:08:15.776Z,612.00
2019-05-05T06:09:15.787Z,612.00
2019-05-05T06:10:24.219Z,616.00
2019-05-05T06:11:15.844Z,616.00
2019-05-05T06:12:15.870Z,620.00
2019-05-05T06:13:15.950Z,620.00
2019-05-05T06:14:15.925Z,624.00
2019-05-05T06:15:15.952Z,624.00
2019-05-05T06:16:15.979Z,628.00
2019-05-05T06:17:16.009Z,632.00
2019-05-05T06:18:16.036Z,636.00
2019-05-05T06:19:16.061Z,636.00
2019-05-05T06:20:16.110Z,636.00
2019-05-05T06:21:16.116Z,640.00
2019-05-05T06:22:28.142Z,644.00
2019-05-05T06:23:16.174Z,644.00
2019-05-05T06:24:16.200Z,648.00
2019-05-05T06:25:16.375Z,648.00
2019-05-05T06:26:16.255Z,656.00
2019-05-05T06:27:16.282Z,656.00
2019-05-05T06:28:16.311Z,656.00
2019-05-05T06:29:16.337Z,660.00
2019-05-05T06:30:16.368Z,660.00
2019-05-05T06:31:16.394Z,664.00
2019-05-05T06:32:16.422Z,664.00
2019-05-05T06:33:16.451Z,668.00
2019-05-05T06:34:16.479Z,668.00
2019-05-05T06:35:16.505Z,672.00
2019-05-05T06:36:16.535Z,672.00
2019-05-05T06:37:16.563Z,676.00
2019-05-05T06:38:16.590Z,676.00
2019-05-05T06:39:16.617Z,680.00
2019-05-05T06:40:16.645Z,684.00
2019-05-05T06:41:16.672Z,684.00
2019-05-05T06:42:16.701Z,688.00
2019-05-05T06:43:16.727Z,688.00
2019-05-05T06:44:16.754Z,692.00
2019-05-05T06:45:16.783Z,692.00
2019-05-05T06:46:16.813Z,696.00
2019-05-05T06:47:16.854Z,696.00
2019-05-05T06:48:16.867Z,700.00
2019-05-05T06:49:16.895Z,704.00
2019-05-05T06:50:16.922Z,708.00
2019-05-05T06:51:16.954Z,708.00
2019-05-05T06:52:16.978Z,708.00
2019-05-05T06:53:17.008Z,712.00
2019-05-05T06:54:17.036Z,716.00
2019-05-05T06:55:17.063Z,720.00
2019-05-05T06:56:17.092Z,720.00
2019-05-05T06:57:17.120Z,724.00
2019-05-05T06:58:17.159Z,724.00
2019-05-05T06:59:17.176Z,728.00
2019-05-05T07:00:17.205Z,732.00
2019-05-05T07:01:17.233Z,732.00
2019-05-05T07:02:17.262Z,736.00
2019-05-05T07:03:17.288Z,736.00
2019-05-05T07:04:17.317Z,744.00
2019-05-05T07:05:17.346Z,740.00
2019-05-05T07:06:17.373Z,744.00
2019-05-05T07:07:17.401Z,752.00
2019-05-05T07:08:17.433Z,752.00
2019-05-05T07:09:17.459Z,756.00
2019-05-05T07:10:17.490Z,760.00
2019-05-05T07:11:17.574Z,764.00
2019-05-05T07:12:17.581Z,764.00
2019-05-05T07:13:17.572Z,768.00
2019-05-05T07:14:17.603Z,772.00
2019-05-05T07:15:17.630Z,776.00
2019-05-05T07:16:17.659Z,776.00
2019-05-05T07:17:17.687Z,780.00
2019-05-05T07:18:17.715Z,780.00
2019-05-05T07:19:17.744Z,788.00
2019-05-05T07:20:17.771Z,788.00
2019-05-05T07:21:17.808Z,796.00
2019-05-05T07:22:17.916Z,800.00
2019-05-05T07:23:17.857Z,800.00
2019-05-05T07:24:17.887Z,804.00
2019-05-05T07:25:17.916Z,808.00
2019-05-05T07:26:17.944Z,812.00
2019-05-05T07:27:17.973Z,816.00
2019-05-05T07:28:18.000Z,820.00
2019-05-05T07:29:18.207Z,824.00
2019-05-05T07:30:18.060Z,828.00
2019-05-05T07:31:18.090Z,832.00
2019-05-05T07:32:18.117Z,836.00
2019-05-05T07:33:18.146Z,840.00
2019-05-05T07:34:18.175Z,844.00
2019-05-05T07:35:18.204Z,848.00
2019-05-05T07:36:18.232Z,856.00
2019-05-05T07:37:18.273Z,860.00
2019-05-05T07:38:18.290Z,864.00
2019-05-05T07:39:18.318Z,868.00
2019-05-05T07:40:18.348Z,868.00
2019-05-05T07:41:18.378Z,880.00
2019-05-05T07:42:18.408Z,880.00
2019-05-05T07:43:18.435Z,884.00
2019-05-05T07:44:26.589Z,888.00
2019-05-05T07:45:22.952Z,888.00
2019-05-05T07:46:18.523Z,896.00
2019-05-05T07:47:18.552Z,900.00
2019-05-05T07:48:18.583Z,908.00
2019-05-05T07:49:18.611Z,912.00
2019-05-05T07:50:28.493Z,920.00
2019-05-05T07:51:18.670Z,928.00
2019-05-05T07:52:18.753Z,928.00
2019-05-05T07:53:18.731Z,936.00
2019-05-05T07:54:18.758Z,944.00
2019-05-05T07:55:18.788Z,952.00
2019-05-05T07:56:18.817Z,960.00
2019-05-05T07:57:18.851Z,964.00
2019-05-05T07:58:18.879Z,972.00
2019-05-05T07:59:18.910Z,980.00
2019-05-05T08:00:18.936Z,992.00
2019-05-05T08:01:18.966Z,1000.00
2019-05-05T08:02:18.995Z,1012.00
2019-05-05T08:03:19.026Z,1024.00
2019-05-05T08:04:19.056Z,1028.00
2019-05-05T08:05:19.085Z,1028.00
2019-05-05T08:06:19.115Z,976.00
2019-05-05T08:07:19.146Z,1044.00
2019-05-05T08:08:19.178Z,1056.00
2019-05-05T08:09:21.820Z,1092.00
2019-05-05T08:10:19.235Z,1132.00
2019-05-05T08:11:19.264Z,1164.00
2019-05-05T08:12:19.295Z,1176.00
2019-05-05T08:13:19.325Z,1184.00
2019-05-05T08:14:19.354Z,1176.00
2019-05-05T08:15:19.383Z,1144.00
2019-05-05T08:16:19.419Z,1028.00
2019-05-05T08:17:19.445Z,996.00
2019-05-05T08:18:19.475Z,1000.00
2019-05-05T08:19:19.505Z,1160.00
2019-05-05T08:20:19.581Z,1024.00
2019-05-05T08:21:19.565Z,1144.00
2019-05-05T08:22:19.604Z,1192.00
2019-05-05T08:23:30.221Z,1144.00
2019-05-05T08:24:19.657Z,1280.00
2019-05-05T08:25:33.572Z,1304.00
2019-05-05T08:26:19.718Z,1336.00
2019-05-05T08:27:21.043Z,1340.00
2019-05-05T08:28:19.783Z,1368.00
2019-05-05T08:29:19.810Z,1332.00
2019-05-05T08:30:19.840Z,1324.00
2019-05-05T08:31:19.870Z,1332.00
2019-05-05T08:32:19.899Z,1340.00
2019-05-05T08:33:19.932Z,1372.00
2019-05-05T08:34:19.962Z,1212.00
2019-05-05T08:35:19.993Z,1168.00
2019-05-05T08:36:20.022Z,1216.00
2019-05-05T08:37:20.054Z,1268.00
2019-05-05T08:38:20.092Z,1440.00
2019-05-05T08:39:21.625Z,1440.00
2019-05-05T08:40:20.148Z,1316.00
2019-05-05T08:41:20.175Z,1424.00
2019-05-05T08:42:20.209Z,1436.00
2019-05-05T08:43:20.243Z,1496.00
2019-05-05T08:44:20.270Z,1492.00
2019-05-05T08:45:23.653Z,1584.00
2019-05-05T08:46:20.333Z,1728.00
2019-05-05T08:47:20.362Z,1784.00
2019-05-05T08:48:20.397Z,1792.00
2019-05-05T08:49:20.425Z,1820.00
2019-05-05T08:50:23.880Z,1840.00
2019-05-05T08:51:20.486Z,1760.00
2019-05-05T08:52:20.518Z,1668.00
2019-05-05T08:53:20.549Z,1632.00
2019-05-05T08:54:20.585Z,1564.00
2019-05-05T08:55:20.613Z,1572.00
2019-05-05T08:56:20.643Z,1632.00
2019-05-05T08:57:20.680Z,1624.00
2019-05-05T08:58:20.705Z,1616.00
2019-05-05T08:59:20.868Z,1656.00
2019-05-05T09:00:20.768Z,1672.00
2019-05-05T09:01:20.813Z,1692.00
2019-05-05T09:02:20.833Z,1728.00
2019-05-05T09:03:20.863Z,1920.00
2019-05-05T09:04:20.895Z,1884.00
2019-05-05T09:05:20.926Z,1880.00
2019-05-05T09:06:20.960Z,1940.00
2019-05-05T09:07:20.988Z,1932.00
2019-05-05T09:08:21.022Z,1860.00
2019-05-05T09:09:21.054Z,1788.00
2019-05-05T09:10:21.085Z,1704.00
2019-05-05T09:11:21.117Z,1660.00
2019-05-05T09:12:21.642Z,1612.00
2019-05-05T09:13:21.180Z,1640.00
2019-05-05T09:14:21.212Z,1712.00
2019-05-05T09:15:21.243Z,1740.00
2019-05-05T09:16:21.278Z,1776.00
2019-05-05T09:17:21.306Z,1800.00
2019-05-05T09:18:21.338Z,1968.00
2019-05-05T09:19:21.369Z,2036.00
2019-05-05T09:20:21.403Z,2072.00
2019-05-05T09:21:21.435Z,2068.00
2019-05-05T09:22:21.466Z,2076.00
2019-05-05T09:23:21.496Z,2044.00
2019-05-05T09:24:21.531Z,2060.00
2019-05-05T09:25:23.449Z,2068.00
2019-05-05T09:26:23.468Z,2128.00
2019-05-05T09:27:21.625Z,2116.00
2019-05-05T09:28:23.762Z,1972.00
2019-05-05T09:29:21.689Z,1740.00
2019-05-05T09:30:21.721Z,1640.00
2019-05-05T09:31:23.873Z,1636.00
2019-05-05T09:32:24.132Z,1640.00
2019-05-05T09:33:21.818Z,1640.00
2019-05-05T09:34:23.908Z,1708.00
2019-05-05T09:35:23.880Z,1760.00
2019-05-05T09:36:21.914Z,1832.00
2019-05-05T09:37:21.947Z,1888.00
2019-05-05T09:38:23.746Z,1920.00
2019-05-05T09:39:23.871Z,1924.00
2019-05-05T09:40:24.111Z,1960.00
2019-05-05T09:41:23.552Z,2008.00
2019-05-05T09:42:23.622Z,2284.00
2019-05-05T09:43:24.015Z,2368.00
2019-05-05T09:44:24.103Z,2388.00
2019-05-05T09:45:24.337Z,2392.00
2019-05-05T09:46:23.534Z,2340.00
2019-05-05T09:47:24.012Z,2312.00
2019-05-05T09:48:24.181Z,2276.00
2019-05-05T09:49:24.475Z,2244.00
2019-05-05T09:50:23.748Z,2260.00
2019-05-05T09:51:24.159Z,2332.00
2019-05-05T09:52:24.287Z,2308.00
2019-05-05T09:53:23.812Z,2268.00
2019-05-05T09:54:24.247Z,2228.00
2019-05-05T09:55:24.167Z,2184.00
2019-05-05T09:56:23.597Z,2176.00
2019-05-05T09:57:23.721Z,2212.00
2019-05-05T09:58:24.218Z,2232.00
2019-05-05T09:59:24.064Z,1980.00
2019-05-05T10:00:24.381Z,1932.00
2019-05-05T10:01:24.541Z,1872.00
2019-05-05T10:02:24.029Z,1928.00
2019-05-05T10:03:22.788Z,1904.00
2019-05-05T10:04:24.320Z,2008.00
2019-05-05T10:05:23.628Z,2108.00
2019-05-05T10:06:24.411Z,2188.00
2019-05-05T10:07:24.278Z,2404.00
2019-05-05T10:08:23.675Z,2384.00
2019-05-05T10:09:24.182Z,2380.00
2019-05-05T10:10:24.329Z,2296.00
2019-05-05T10:11:23.822Z,2204.00
2019-05-05T10:12:23.083Z,1936.00
2019-05-05T10:13:23.117Z,1848.00
2019-05-05T10:14:23.150Z,1772.00
2019-05-05T10:15:23.183Z,1684.00
2019-05-05T10:16:23.606Z,1600.00
2019-05-05T10:17:24.422Z,1516.00
2019-05-05T10:18:25.400Z,1464.00
2019-05-05T10:19:24.359Z,1440.00
2019-05-05T10:20:23.706Z,1416.00
2019-05-05T10:21:24.659Z,1408.00
2019-05-05T10:22:23.918Z,1380.00
2019-05-05T10:23:23.638Z,1372.00
2019-05-05T10:24:28.524Z,1352.00
2019-05-05T10:25:23.922Z,1332.00
2019-05-05T10:26:23.907Z,1328.00
2019-05-05T10:27:23.579Z,1360.00
2019-05-05T10:28:24.023Z,1648.00
2019-05-05T10:29:23.642Z,1712.00
2019-05-05T10:30:23.904Z,1768.00
2019-05-05T10:31:24.197Z,1828.00
2019-05-05T10:32:24.504Z,1860.00
2019-05-05T10:33:24.657Z,1932.00
2019-05-05T10:34:24.274Z,2064.00
2019-05-05T10:35:23.923Z,2212.00
2019-05-05T10:36:24.469Z,2364.00
2019-05-05T10:37:23.907Z,2456.00
2019-05-05T10:38:23.939Z,2420.00
2019-05-05T10:39:24.123Z,2344.00
2019-05-05T10:40:24.010Z,2424.00
2019-05-05T10:41:24.039Z,2312.00
2019-05-05T10:42:24.465Z,2328.00
2019-05-05T10:43:24.104Z,2324.00
2019-05-05T10:44:24.150Z,2340.00
2019-05-05T10:45:24.572Z,2348.00
2019-05-05T10:46:24.205Z,2292.00
2019-05-05T10:47:24.266Z,2172.00
2019-05-05T10:48:24.272Z,2080.00
2019-05-05T10:49:24.513Z,2028.00
2019-05-05T10:50:24.834Z,1984.00
2019-05-05T10:51:24.372Z,1904.00
2019-05-05T10:52:24.406Z,1884.00
2019-05-05T10:53:24.439Z,1856.00
2019-05-05T10:54:24.477Z,1816.00
2019-05-05T10:55:24.505Z,1788.00
2019-05-05T10:56:24.539Z,1808.00
2019-05-05T10:57:24.581Z,1784.00
2019-05-05T10:58:24.606Z,1768.00
2019-05-05T10:59:24.639Z,1756.00
2019-05-05T11:00:24.673Z,1760.00
2019-05-05T11:01:24.708Z,1772.00
2019-05-05T11:02:24.743Z,1812.00
2019-05-05T11:03:24.774Z,1844.00
2019-05-05T11:04:24.808Z,1864.00
2019-05-05T11:05:24.843Z,1872.00
2019-05-05T11:06:24.878Z,1912.00
2019-05-05T11:07:24.909Z,1980.00
2019-05-05T11:08:24.939Z,2092.00
2019-05-05T11:09:24.977Z,2052.00
2019-05-05T11:10:25.009Z,2280.00
2019-05-05T11:11:25.041Z,2476.00
2019-05-05T11:12:25.075Z,2564.00
2019-05-05T11:13:25.107Z,2540.00
2019-05-05T11:14:25.141Z,2384.00
2019-05-05T11:15:25.174Z,2080.00
2019-05-05T11:16:25.209Z,1972.00
2019-05-05T11:17:25.241Z,1820.00
2019-05-05T11:18:25.275Z,1644.00
2019-05-05T11:19:25.311Z,1484.00
2019-05-05T11:20:25.342Z,1368.00
2019-05-05T11:21:25.376Z,1332.00
2019-05-05T11:22:25.407Z,1340.00
2019-05-05T11:23:25.442Z,1364.00
2019-05-05T11:24:25.475Z,1384.00
2019-05-05T11:25:25.508Z,1456.00
2019-05-05T11:26:25.541Z,1540.00
2019-05-05T11:27:25.574Z,1664.00
2019-05-05T11:28:25.607Z,1840.00
2019-05-05T11:29:25.643Z,2016.00
2019-05-05T11:30:26.894Z,2212.00
2019-05-05T11:31:25.708Z,2568.00
2019-05-05T11:32:25.742Z,2648.00
2019-05-05T11:33:25.777Z,2700.00
2019-05-05T11:34:25.811Z,2720.00
2019-05-05T11:35:25.842Z,2676.00
2019-05-05T11:36:25.879Z,2584.00
2019-05-05T11:37:25.909Z,2436.00
2019-05-05T11:38:25.943Z,2308.00
2019-05-05T11:39:25.977Z,2180.00
2019-05-05T11:40:26.009Z,2108.00
2019-05-05T11:41:26.054Z,2156.00
2019-05-05T11:42:26.078Z,2148.00
2019-05-05T11:43:26.111Z,2036.00
2019-05-05T11:44:26.143Z,1924.00
2019-05-05T11:45:26.179Z,1956.00
2019-05-05T11:46:26.218Z,1812.00
2019-05-05T11:47:26.244Z,1880.00
2019-05-05T11:48:26.278Z,1996.00
2019-05-05T11:49:26.312Z,1876.00
2019-05-05T11:50:26.347Z,1848.00
2019-05-05T11:51:26.382Z,1956.00
2019-05-05T11:52:26.421Z,2068.00
2019-05-05T11:53:26.448Z,2144.00
2019-05-05T11:54:26.483Z,2180.00
2019-05-05T11:55:26.516Z,2200.00
2019-05-05T11:56:26.550Z,2252.00
2019-05-05T11:57:26.586Z,2264.00
2019-05-05T11:58:26.619Z,2276.00
2019-05-05T11:59:26.650Z,2276.00
2019-05-05T12:00:26.686Z,2232.00
2019-05-05T12:01:26.724Z,2212.00
2019-05-05T12:02:26.753Z,2204.00
2019-05-05T12:03:26.788Z,2360.00
2019-05-05T12:04:26.823Z,2188.00
2019-05-05T12:05:26.856Z,2172.00
2019-05-05T12:06:26.891Z,2148.00
2019-05-05T12:07:26.926Z,2112.00
2019-05-05T12:08:26.958Z,2072.00
2019-05-05T12:09:26.994Z,2056.00
2019-05-05T12:10:27.027Z,2068.00
2019-05-05T12:11:27.059Z,2092.00
2019-05-05T12:12:27.096Z,2112.00
2019-05-05T12:13:27.128Z,2144.00
2019-05-05T12:14:27.411Z,2176.00
2019-05-05T12:15:27.196Z,2192.00
2019-05-05T12:16:27.230Z,2212.00
2019-05-05T12:17:27.264Z,2228.00
2019-05-05T12:18:27.298Z,2252.00
2019-05-05T12:19:27.333Z,2272.00
2019-05-05T12:20:27.369Z,2312.00
2019-05-05T12:21:27.410Z,2352.00
2019-05-05T12:22:27.435Z,2392.00
2019-05-05T12:23:27.469Z,2440.00
2019-05-05T12:24:27.501Z,2408.00
2019-05-05T12:25:28.653Z,2460.00
2019-05-05T12:26:27.573Z,2472.00
2019-05-05T12:27:27.604Z,2488.00
2019-05-05T12:28:27.638Z,2516.00
2019-05-05T12:29:27.672Z,2532.00
2019-05-05T12:30:27.705Z,2516.00
2019-05-05T12:31:27.737Z,2532.00
2019-05-05T12:32:27.796Z,2592.00
2019-05-05T12:33:27.809Z,2676.00